sensor_id;sensor_type;location;lat;lon;timestamp;pressure;altitude;pressure_sealevel;temperature;humidity
2785;BME280;57944;48.722;9.316;2022-10-16T00:02:08;97954.38;;;15.72;100.00
2785;BME280;57944;48.722;9.316;2022-10-16T00:04:39;97954.00;;;15.56;100.00
2785;BME280;57944;48.722;9.316;2022-10-16T00:07:11;97954.78;;;15.57;100.00
2785;BME280;57944;48.722;9.316;2022-10-16T00:09:41;97956.00;;;15.54;100.00
2785;BME280;57944;48.722;9.316;2022-10-16T00:12:11;97947.88;;;15.46;100.00
2785;BME280;57944;48.722;9.316;2022-10-16T00:14:41;97949.78;;;15.38;100.00
2785;BME280;57944;48.722;9.316;2022-10-16T00:17:12;97944.06;;;15.36;100.00
2785;BME280;57944;48.722;9.316;2022-10-16T00:19:42;97948.31;;;15.19;100.00
2785;BME280;57944;48.722;9.316;2022-10-16T00:22:14;97958.03;;;15.17;100.00
2785;BME280;57944;48.722;9.316;2022-10-16T00:24:45;97960.47;;;15.12;100.00
2785;BME280;57944;48.722;9.316;2022-10-16T00:27:15;97968.94;;;15.12;100.00
2785;BME280;57944;48.722;9.316;2022-10-16T00:29:45;97956.66;;;15.03;100.00
2785;BME280;57944;48.722;9.316;2022-10-16T00:32:20;97962.25;;;15.00;100.00
2785;BME280;57944;48.722;9.316;2022-10-16T00:34:50;97961.53;;;14.92;100.00
2785;BME280;57944;48.722;9.316;2022-10-16T00:37:24;97959.72;;;14.81;100.00
2785;BME280;57944;48.722;9.316;2022-10-16T00:39:54;97964.72;;;14.76;100.00
2785;BME280;57944;48.722;9.316;2022-10-16T00:42:24;97959.50;;;14.71;100.00
2785;BME280;57944;48.722;9.316;2022-10-16T00:44:57;97951.84;;;14.52;100.00
2785;BME280;57944;48.722;9.316;2022-10-16T00:47:30;97948.00;;;14.43;100.00
2785;BME280;57944;48.722;9.316;2022-10-16T00:50:09;97954.53;;;14.39;100.00
2785;BME280;57944;48.722;9.316;2022-10-16T00:52:48;97944.28;;;14.58;100.00
2785;BME280;57944;48.722;9.316;2022-10-16T00:55:19;97947.22;;;14.73;100.00
2785;BME280;57944;48.722;9.316;2022-10-16T00:57:51;97950.69;;;14.79;100.00
2785;BME280;57944;48.722;9.316;2022-10-16T01:00:25;97953.03;;;14.80;100.00
2785;BME280;57944;48.722;9.316;2022-10-16T01:02:59;97946.09;;;14.69;100.00
2785;BME280;57944;48.722;9.316;2022-10-16T01:05:39;97945.91;;;14.82;100.00
2785;BME280;57944;48.722;9.316;2022-10-16T01:08:18;97954.25;;;14.66;100.00
2785;BME280;57944;48.722;9.316;2022-10-16T01:10:57;97965.25;;;14.55;100.00
2785;BME280;57944;48.722;9.316;2022-10-16T01:13:35;97967.22;;;14.52;100.00
2785;BME280;57944;48.722;9.316;2022-10-16T01:16:13;97969.19;;;14.50;100.00
2785;BME280;57944;48.722;9.316;2022-10-16T01:18:50;97978.25;;;14.53;100.00
2785;BME280;57944;48.722;9.316;2022-10-16T01:21:29;97971.59;;;14.52;100.00
2785;BME280;57944;48.722;9.316;2022-10-16T01:24:17;97984.00;;;14.48;100.00
2785;BME280;57944;48.722;9.316;2022-10-16T01:27:19;97985.34;;;14.51;100.00
2785;BME280;57944;48.722;9.316;2022-10-16T01:29:56;97986.88;;;14.59;100.00
2785;BME280;57944;48.722;9.316;2022-10-16T01:32:37;97982.78;;;14.51;100.00
2785;BME280;57944;48.722;9.316;2022-10-16T01:35:12;97974.94;;;14.52;100.00
2785;BME280;57944;48.722;9.316;2022-10-16T01:37:50;97966.34;;;14.59;100.00
2785;BME280;57944;48.722;9.316;2022-10-16T01:40:26;97968.34;;;14.57;100.00
2785;BME280;57944;48.722;9.316;2022-10-16T01:43:04;97979.88;;;14.47;100.00
2785;BME280;57944;48.722;9.316;2022-10-16T01:45:35;97977.66;;;14.21;100.00
2785;BME280;57944;48.722;9.316;2022-10-16T01:48:07;97962.38;;;14.26;100.00
2785;BME280;57944;48.722;9.316;2022-10-16T01:50:44;97957.19;;;14.33;100.00
2785;BME280;57944;48.722;9.316;2022-10-16T01:53:20;97956.13;;;14.40;100.00
2785;BME280;57944;48.722;9.316;2022-10-16T01:55:54;97960.44;;;14.40;100.00
2785;BME280;57944;48.722;9.316;2022-10-16T01:58:30;97951.53;;;14.42;100.00
2785;BME280;57944;48.722;9.316;2022-10-16T02:01:07;97958.94;;;14.50;100.00
2785;BME280;57944;48.722;9.316;2022-10-16T02:03:42;97958.38;;;14.48;100.00
2785;BME280;57944;48.722;9.316;2022-10-16T02:06:13;97957.38;;;14.49;100.00
2785;BME280;57944;48.722;9.316;2022-10-16T02:08:43;97943.50;;;14.57;100.00
2785;BME280;57944;48.722;9.316;2022-10-16T02:11:13;97944.63;;;14.61;100.00
2785;BME280;57944;48.722;9.316;2022-10-16T02:13:54;97945.97;;;14.64;100.00
2785;BME280;57944;48.722;9.316;2022-10-16T02:16:35;97953.66;;;14.64;100.00
2785;BME280;57944;48.722;9.316;2022-10-16T02:19:06;97951.81;;;14.71;100.00
2785;BME280;57944;48.722;9.316;2022-10-16T02:21:44;97953.22;;;14.67;100.00
2785;BME280;57944;48.722;9.316;2022-10-16T02:24:23;97960.72;;;14.68;100.00
2785;BME280;57944;48.722;9.316;2022-10-16T02:27:06;97966.31;;;14.77;100.00
2785;BME280;57944;48.722;9.316;2022-10-16T02:29:47;97966.00;;;14.85;100.00
2785;BME280;57944;48.722;9.316;2022-10-16T02:32:24;97969.47;;;14.91;100.00
2785;BME280;57944;48.722;9.316;2022-10-16T02:34:59;97961.09;;;14.95;100.00
2785;BME280;57944;48.722;9.316;2022-10-16T02:37:30;97962.00;;;14.89;100.00
2785;BME280;57944;48.722;9.316;2022-10-16T02:40:02;97954.09;;;14.91;100.00
2785;BME280;57944;48.722;9.316;2022-10-16T02:42:36;97945.47;;;14.85;100.00
2785;BME280;57944;48.722;9.316;2022-10-16T02:45:11;97940.97;;;14.69;100.00
2785;BME280;57944;48.722;9.316;2022-10-16T02:47:41;97940.53;;;14.72;100.00
2785;BME280;57944;48.722;9.316;2022-10-16T02:50:11;97942.22;;;14.78;100.00
2785;BME280;57944;48.722;9.316;2022-10-16T02:52:41;97954.94;;;14.85;100.00
2785;BME280;57944;48.722;9.316;2022-10-16T02:55:11;97949.75;;;14.61;100.00
2785;BME280;57944;48.722;9.316;2022-10-16T02:57:41;97952.97;;;14.57;100.00
2785;BME280;57944;48.722;9.316;2022-10-16T03:00:17;97959.97;;;14.31;100.00
2785;BME280;57944;48.722;9.316;2022-10-16T03:02:47;97962.38;;;14.26;100.00
2785;BME280;57944;48.722;9.316;2022-10-16T03:05:17;97960.63;;;14.26;100.00
2785;BME280;57944;48.722;9.316;2022-10-16T03:08:07;97964.31;;;14.30;100.00
2785;BME280;57944;48.722;9.316;2022-10-16T03:10:37;97970.22;;;14.31;100.00
2785;BME280;57944;48.722;9.316;2022-10-16T03:13:07;97963.69;;;14.35;100.00
2785;BME280;57944;48.722;9.316;2022-10-16T03:15:40;97960.53;;;14.33;100.00
2785;BME280;57944;48.722;9.316;2022-10-16T03:18:10;97963.09;;;14.33;100.00
2785;BME280;57944;48.722;9.316;2022-10-16T03:20:40;97970.06;;;14.44;100.00
2785;BME280;57944;48.722;9.316;2022-10-16T03:23:11;97967.81;;;14.55;100.00
2785;BME280;57944;48.722;9.316;2022-10-16T03:25:41;97966.94;;;14.61;100.00
2785;BME280;57944;48.722;9.316;2022-10-16T03:28:14;97962.16;;;14.46;100.00
2785;BME280;57944;48.722;9.316;2022-10-16T03:30:47;97967.44;;;14.33;100.00
2785;BME280;57944;48.722;9.316;2022-10-16T03:33:18;97966.25;;;14.35;100.00
2785;BME280;57944;48.722;9.316;2022-10-16T03:35:51;97970.22;;;14.31;100.00
2785;BME280;57944;48.722;9.316;2022-10-16T03:38:22;97965.75;;;14.08;100.00
2785;BME280;57944;48.722;9.316;2022-10-16T03:40:53;97960.56;;;14.15;100.00
2785;BME280;57944;48.722;9.316;2022-10-16T03:43:23;97967.25;;;14.16;100.00
2785;BME280;57944;48.722;9.316;2022-10-16T03:45:55;97971.31;;;14.05;100.00
2785;BME280;57944;48.722;9.316;2022-10-16T03:48:25;97968.91;;;14.10;100.00
2785;BME280;57944;48.722;9.316;2022-10-16T03:50:55;97978.44;;;14.03;100.00
2785;BME280;57944;48.722;9.316;2022-10-16T03:53:26;97975.66;;;14.04;100.00
2785;BME280;57944;48.722;9.316;2022-10-16T03:55:56;97971.22;;;14.12;100.00
2785;BME280;57944;48.722;9.316;2022-10-16T03:58:26;97974.09;;;14.22;100.00
2785;BME280;57944;48.722;9.316;2022-10-16T04:00:58;97975.63;;;14.23;100.00
2785;BME280;57944;48.722;9.316;2022-10-16T04:03:28;97981.97;;;14.20;100.00
2785;BME280;57944;48.722;9.316;2022-10-16T04:05:58;97981.06;;;14.15;100.00
2785;BME280;57944;48.722;9.316;2022-10-16T04:08:29;97979.94;;;14.11;100.00
2785;BME280;57944;48.722;9.316;2022-10-16T04:11:01;97977.94;;;14.13;100.00
2785;BME280;57944;48.722;9.316;2022-10-16T04:13:31;97981.72;;;14.10;100.00
2785;BME280;57944;48.722;9.316;2022-10-16T04:16:04;97979.34;;;14.08;100.00
2785;BME280;57944;48.722;9.316;2022-10-16T04:18:34;97979.94;;;14.11;100.00
2785;BME280;57944;48.722;9.316;2022-10-16T04:21:05;97977.56;;;14.09;100.00
2785;BME280;57944;48.722;9.316;2022-10-16T04:23:36;97982.91;;;14.07;100.00
2785;BME280;57944;48.722;9.316;2022-10-16T04:26:06;97985.09;;;14.04;100.00
2785;BME280;57944;48.722;9.316;2022-10-16T04:28:37;97989.03;;;14.06;100.00
2785;BME280;57944;48.722;9.316;2022-10-16T04:31:10;97983.34;;;14.04;100.00
2785;BME280;57944;48.722;9.316;2022-10-16T04:33:42;97989.72;;;13.95;100.00
2785;BME280;57944;48.722;9.316;2022-10-16T04:36:12;97992.09;;;13.97;100.00
2785;BME280;57944;48.722;9.316;2022-10-16T04:38:42;97983.63;;;13.96;100.00
2785;BME280;57944;48.722;9.316;2022-10-16T04:41:12;97975.72;;;13.98;100.00
2785;BME280;57944;48.722;9.316;2022-10-16T04:43:42;97979.06;;;13.98;100.00
2785;BME280;57944;48.722;9.316;2022-10-16T04:46:15;97985.19;;;13.97;100.00
2785;BME280;57944;48.722;9.316;2022-10-16T04:48:45;97983.00;;;13.82;100.00
2785;BME280;57944;48.722;9.316;2022-10-16T04:51:15;97992.06;;;13.78;100.00
2785;BME280;57944;48.722;9.316;2022-10-16T04:53:45;97996.06;;;13.74;100.00
2785;BME280;57944;48.722;9.316;2022-10-16T04:56:16;97991.09;;;13.79;100.00
2785;BME280;57944;48.722;9.316;2022-10-16T04:58:46;97994.59;;;13.85;100.00
2785;BME280;57944;48.722;9.316;2022-10-16T05:01:19;97994.75;;;13.90;100.00
2785;BME280;57944;48.722;9.316;2022-10-16T05:03:49;97998.59;;;13.99;100.00
2785;BME280;57944;48.722;9.316;2022-10-16T05:06:19;98002.53;;;13.95;100.00
2785;BME280;57944;48.722;9.316;2022-10-16T05:08:49;98002.97;;;13.92;100.00
2785;BME280;57944;48.722;9.316;2022-10-16T05:11:19;98011.81;;;13.96;100.00
2785;BME280;57944;48.722;9.316;2022-10-16T05:13:49;98013.09;;;14.05;100.00
2785;BME280;57944;48.722;9.316;2022-10-16T05:16:24;98017.66;;;14.03;100.00
2785;BME280;57944;48.722;9.316;2022-10-16T05:18:54;98016.88;;;14.03;100.00
2785;BME280;57944;48.722;9.316;2022-10-16T05:21:44;98014.94;;;13.98;100.00
2785;BME280;57944;48.722;9.316;2022-10-16T05:24:14;98018.50;;;13.97;100.00
2785;BME280;57944;48.722;9.316;2022-10-16T05:26:44;98022.06;;;13.96;100.00
2785;BME280;57944;48.722;9.316;2022-10-16T05:29:15;98006.69;;;13.96;100.00
2785;BME280;57944;48.722;9.316;2022-10-16T05:31:51;98006.91;;;13.95;100.00
2785;BME280;57944;48.722;9.316;2022-10-16T05:34:21;98008.22;;;13.79;100.00
2785;BME280;57944;48.722;9.316;2022-10-16T05:36:51;98009.03;;;13.79;100.00
2785;BME280;57944;48.722;9.316;2022-10-16T05:39:21;98012.94;;;13.82;100.00
2785;BME280;57944;48.722;9.316;2022-10-16T05:41:51;98013.94;;;13.99;100.00
2785;BME280;57944;48.722;9.316;2022-10-16T05:44:21;98022.19;;;13.83;100.00
2785;BME280;57944;48.722;9.316;2022-10-16T05:46:54;98028.31;;;13.82;100.00
2785;BME280;57944;48.722;9.316;2022-10-16T05:49:24;98029.78;;;13.71;100.00
2785;BME280;57944;48.722;9.316;2022-10-16T05:51:54;98019.28;;;13.79;100.00
2785;BME280;57944;48.722;9.316;2022-10-16T05:54:24;98024.88;;;13.70;100.00
2785;BME280;57944;48.722;9.316;2022-10-16T05:56:54;98033.44;;;13.82;100.00
2785;BME280;57944;48.722;9.316;2022-10-16T05:59:24;98040.69;;;13.85;100.00
2785;BME280;57944;48.722;9.316;2022-10-16T06:01:57;98033.69;;;13.99;100.00
2785;BME280;57944;48.722;9.316;2022-10-16T06:04:27;98037.09;;;14.11;100.00
2785;BME280;57944;48.722;9.316;2022-10-16T06:06:58;98035.09;;;14.13;100.00
2785;BME280;57944;48.722;9.316;2022-10-16T06:09:30;98044.28;;;14.02;100.00
2785;BME280;57944;48.722;9.316;2022-10-16T06:12:00;98045.41;;;14.06;100.00
2785;BME280;57944;48.722;9.316;2022-10-16T06:14:30;98055.59;;;14.13;100.00
2785;BME280;57944;48.722;9.316;2022-10-16T06:17:02;98057.47;;;14.24;100.00
2785;BME280;57944;48.722;9.316;2022-10-16T06:19:32;98053.91;;;14.25;100.00
2785;BME280;57944;48.722;9.316;2022-10-16T06:22:02;98055.06;;;14.29;100.00
2785;BME280;57944;48.722;9.316;2022-10-16T06:24:32;98056.38;;;14.50;100.00
2785;BME280;57944;48.722;9.316;2022-10-16T06:27:03;98067.94;;;14.78;100.00
2785;BME280;57944;48.722;9.316;2022-10-16T06:29:34;98081.19;;;14.93;100.00
2785;BME280;57944;48.722;9.316;2022-10-16T06:32:07;98070.97;;;14.87;100.00
2785;BME280;57944;48.722;9.316;2022-10-16T06:34:37;98064.91;;;15.00;100.00
2785;BME280;57944;48.722;9.316;2022-10-16T06:37:10;98072.97;;;15.15;100.00
2785;BME280;57944;48.722;9.316;2022-10-16T06:39:40;98076.81;;;15.24;100.00
2785;BME280;57944;48.722;9.316;2022-10-16T06:42:10;98075.81;;;15.37;100.00
2785;BME280;57944;48.722;9.316;2022-10-16T06:44:40;98066.50;;;15.66;100.00
2785;BME280;57944;48.722;9.316;2022-10-16T06:47:13;98072.91;;;15.99;100.00
2785;BME280;57944;48.722;9.316;2022-10-16T06:49:43;98082.75;;;16.14;100.00
2785;BME280;57944;48.722;9.316;2022-10-16T06:52:20;98089.06;;;16.35;100.00
2785;BME280;57944;48.722;9.316;2022-10-16T06:54:50;98094.50;;;16.62;100.00
2785;BME280;57944;48.722;9.316;2022-10-16T06:57:21;98101.75;;;16.88;100.00
2785;BME280;57944;48.722;9.316;2022-10-16T06:59:51;98099.28;;;17.10;100.00
2785;BME280;57944;48.722;9.316;2022-10-16T07:02:24;98104.03;;;17.30;100.00
2785;BME280;57944;48.722;9.316;2022-10-16T07:04:54;98107.22;;;17.37;100.00
2785;BME280;57944;48.722;9.316;2022-10-16T07:07:24;98122.59;;;17.32;100.00
2785;BME280;57944;48.722;9.316;2022-10-16T07:09:54;98119.72;;;17.29;100.00
2785;BME280;57944;48.722;9.316;2022-10-16T07:12:25;98122.84;;;17.31;100.00
2785;BME280;57944;48.722;9.316;2022-10-16T07:14:55;98125.50;;;17.36;100.00
2785;BME280;57944;48.722;9.316;2022-10-16T07:17:28;98120.66;;;17.39;100.00
2785;BME280;57944;48.722;9.316;2022-10-16T07:19:58;98135.50;;;17.49;100.00
2785;BME280;57944;48.722;9.316;2022-10-16T07:22:28;98130.13;;;17.51;100.00
2785;BME280;57944;48.722;9.316;2022-10-16T07:24:59;98135.50;;;17.49;100.00
2785;BME280;57944;48.722;9.316;2022-10-16T07:27:29;98146.84;;;17.48;100.00
2785;BME280;57944;48.722;9.316;2022-10-16T07:30:00;98154.63;;;17.36;100.00
2785;BME280;57944;48.722;9.316;2022-10-16T07:32:37;98154.06;;;17.34;100.00
2785;BME280;57944;48.722;9.316;2022-10-16T07:35:08;98161.81;;;17.34;100.00
2785;BME280;57944;48.722;9.316;2022-10-16T07:37:38;98167.44;;;17.48;100.00
2785;BME280;57944;48.722;9.316;2022-10-16T07:40:09;98169.50;;;17.63;100.00
2785;BME280;57944;48.722;9.316;2022-10-16T07:42:39;98173.28;;;17.72;100.00
2785;BME280;57944;48.722;9.316;2022-10-16T07:45:10;98182.44;;;17.80;100.00
2785;BME280;57944;48.722;9.316;2022-10-16T07:47:42;98182.38;;;17.92;100.00
2785;BME280;57944;48.722;9.316;2022-10-16T07:50:13;98178.88;;;17.98;100.00
2785;BME280;57944;48.722;9.316;2022-10-16T07:52:43;98178.47;;;18.06;100.00
2785;BME280;57944;48.722;9.316;2022-10-16T07:55:13;98178.78;;;18.09;100.00
2785;BME280;57944;48.722;9.316;2022-10-16T07:57:43;98176.09;;;18.21;100.00
2785;BME280;57944;48.722;9.316;2022-10-16T08:00:13;98178.75;;;18.26;100.00
2785;BME280;57944;48.722;9.316;2022-10-16T08:02:46;98181.72;;;18.35;100.00
2785;BME280;57944;48.722;9.316;2022-10-16T08:05:16;98185.53;;;18.49;100.00
2785;BME280;57944;48.722;9.316;2022-10-16T08:07:48;98190.63;;;18.44;100.00
2785;BME280;57944;48.722;9.316;2022-10-16T08:10:21;98193.34;;;18.54;100.00
2785;BME280;57944;48.722;9.316;2022-10-16T08:12:52;98195.09;;;18.71;100.00
2785;BME280;57944;48.722;9.316;2022-10-16T08:15:23;98189.31;;;19.03;100.00
2785;BME280;57944;48.722;9.316;2022-10-16T08:18:01;98191.75;;;19.36;100.00
2785;BME280;57944;48.722;9.316;2022-10-16T08:20:33;98191.03;;;19.68;100.00
2785;BME280;57944;48.722;9.316;2022-10-16T08:23:03;98197.50;;;19.98;100.00
2785;BME280;57944;48.722;9.316;2022-10-16T08:25:36;98195.50;;;20.10;100.00
2785;BME280;57944;48.722;9.316;2022-10-16T08:28:08;98196.88;;;20.18;100.00
2785;BME280;57944;48.722;9.316;2022-10-16T08:30:39;98202.38;;;20.31;100.00
2785;BME280;57944;48.722;9.316;2022-10-16T08:33:12;98208.78;;;20.61;100.00
2785;BME280;57944;48.722;9.316;2022-10-16T08:35:42;98199.66;;;21.01;100.00
2785;BME280;57944;48.722;9.316;2022-10-16T08:38:12;98204.19;;;21.41;100.00
2785;BME280;57944;48.722;9.316;2022-10-16T08:40:42;98198.00;;;21.78;100.00
2785;BME280;57944;48.722;9.316;2022-10-16T08:43:39;98204.50;;;21.91;100.00
2785;BME280;57944;48.722;9.316;2022-10-16T08:46:34;98214.38;;;22.09;100.00
2785;BME280;57944;48.722;9.316;2022-10-16T08:49:18;98213.81;;;21.92;100.00
2785;BME280;57944;48.722;9.316;2022-10-16T08:51:48;98212.81;;;21.88;100.00
2785;BME280;57944;48.722;9.316;2022-10-16T08:54:29;98219.53;;;21.84;100.00
2785;BME280;57944;48.722;9.316;2022-10-16T08:57:19;98221.63;;;21.87;100.00
2785;BME280;57944;48.722;9.316;2022-10-16T08:59:51;98219.03;;;21.87;100.00
2785;BME280;57944;48.722;9.316;2022-10-16T09:02:31;98208.09;;;21.54;100.00
2785;BME280;57944;48.722;9.316;2022-10-16T09:05:48;98230.84;;;21.32;100.00
2785;BME280;57944;48.722;9.316;2022-10-16T09:08:28;98235.50;;;21.30;100.00
2785;BME280;57944;48.722;9.316;2022-10-16T09:11:10;98235.56;;;21.45;100.00
2785;BME280;57944;48.722;9.316;2022-10-16T09:13:51;98233.53;;;21.78;100.00
2785;BME280;57944;48.722;9.316;2022-10-16T09:16:32;98246.03;;;22.01;100.00
2785;BME280;57944;48.722;9.316;2022-10-16T09:19:13;98246.56;;;22.24;100.00
2785;BME280;57944;48.722;9.316;2022-10-16T09:21:47;98237.97;;;22.28;100.00
2785;BME280;57944;48.722;9.316;2022-10-16T09:24:25;98234.06;;;22.46;100.00
2785;BME280;57944;48.722;9.316;2022-10-16T09:26:55;98234.06;;;22.51;100.00
2785;BME280;57944;48.722;9.316;2022-10-16T09:29:25;98233.78;;;22.53;100.00
2785;BME280;57944;48.722;9.316;2022-10-16T09:32:09;98236.06;;;22.80;100.00
2785;BME280;57944;48.722;9.316;2022-10-16T09:34:46;98251.59;;;23.06;100.00
2785;BME280;57944;48.722;9.316;2022-10-16T09:37:22;98242.72;;;23.61;97.81
2785;BME280;57944;48.722;9.316;2022-10-16T09:39:55;98253.03;;;24.16;90.85
2785;BME280;57944;48.722;9.316;2022-10-16T09:42:36;98249.56;;;23.92;94.68
2785;BME280;57944;48.722;9.316;2022-10-16T09:45:22;98254.88;;;23.76;95.01
2785;BME280;57944;48.722;9.316;2022-10-16T09:47:53;98254.03;;;23.86;93.45
2785;BME280;57944;48.722;9.316;2022-10-16T09:50:26;98247.31;;;23.80;95.12
2785;BME280;57944;48.722;9.316;2022-10-16T09:53:12;98251.81;;;24.38;91.89
2785;BME280;57944;48.722;9.316;2022-10-16T09:55:51;98247.75;;;24.56;89.76
2785;BME280;57944;48.722;9.316;2022-10-16T09:58:22;98246.59;;;24.38;87.89
2785;BME280;57944;48.722;9.316;2022-10-16T10:00:54;98244.84;;;24.28;88.47
2785;BME280;57944;48.722;9.316;2022-10-16T10:03:37;98239.63;;;23.99;90.17
2785;BME280;57944;48.722;9.316;2022-10-16T10:06:21;98244.84;;;23.99;91.69
2785;BME280;57944;48.722;9.316;2022-10-16T10:09:16;98255.09;;;24.48;88.53
2785;BME280;57944;48.722;9.316;2022-10-16T10:11:53;98253.75;;;25.23;80.67
2785;BME280;57944;48.722;9.316;2022-10-16T10:14:30;98255.53;;;26.17;76.61
2785;BME280;57944;48.722;9.316;2022-10-16T10:17:17;98251.31;;;27.32;64.44
2785;BME280;57944;48.722;9.316;2022-10-16T10:19:52;98248.47;;;28.01;61.55
2785;BME280;57944;48.722;9.316;2022-10-16T10:22:30;98256.47;;;27.59;63.95
2785;BME280;57944;48.722;9.316;2022-10-16T10:25:19;98254.28;;;27.03;65.54
2785;BME280;57944;48.722;9.316;2022-10-16T10:28:18;98246.81;;;26.68;69.60
2785;BME280;57944;48.722;9.316;2022-10-16T10:31:01;98255.53;;;26.64;69.56
2785;BME280;57944;48.722;9.316;2022-10-16T10:33:42;98251.72;;;27.39;63.80
2785;BME280;57944;48.722;9.316;2022-10-16T10:36:29;98246.78;;;28.05;58.99
2785;BME280;57944;48.722;9.316;2022-10-16T10:39:05;98255.22;;;28.24;56.29
2785;BME280;57944;48.722;9.316;2022-10-16T10:42:18;98249.88;;;28.38;57.54
2785;BME280;57944;48.722;9.316;2022-10-16T10:45:16;98257.19;;;28.90;54.67
2785;BME280;57944;48.722;9.316;2022-10-16T10:48:13;98257.84;;;27.57;59.23
2785;BME280;57944;48.722;9.316;2022-10-16T10:50:53;98256.34;;;27.42;61.35
2785;BME280;57944;48.722;9.316;2022-10-16T10:53:40;98259.00;;;27.28;60.91
2785;BME280;57944;48.722;9.316;2022-10-16T10:56:28;98257.19;;;26.27;69.44
2785;BME280;57944;48.722;9.316;2022-10-16T11:02:32;98253.34;;;24.92;81.61
2785;BME280;57944;48.722;9.316;2022-10-16T11:05:27;98251.66;;;24.24;88.29
2785;BME280;57944;48.722;9.316;2022-10-16T11:08:06;98246.53;;;24.14;84.80
2785;BME280;57944;48.722;9.316;2022-10-16T11:10:47;98239.81;;;24.07;81.07
2785;BME280;57944;48.722;9.316;2022-10-16T11:13:31;98243.22;;;23.63;84.00
2785;BME280;57944;48.722;9.316;2022-10-16T11:16:16;98244.22;;;23.28;86.39
2785;BME280;57944;48.722;9.316;2022-10-16T11:18:58;98236.50;;;23.08;86.40
2785;BME280;57944;48.722;9.316;2022-10-16T11:21:36;98237.53;;;23.12;91.77
2785;BME280;57944;48.722;9.316;2022-10-16T11:24:19;98228.16;;;23.16;90.90
2785;BME280;57944;48.722;9.316;2022-10-16T11:26:54;98231.19;;;23.33;86.65
2785;BME280;57944;48.722;9.316;2022-10-16T11:29:29;98225.63;;;23.50;85.59
2785;BME280;57944;48.722;9.316;2022-10-16T11:32:16;98228.22;;;23.90;84.52
2785;BME280;57944;48.722;9.316;2022-10-16T11:34:57;98227.97;;;23.91;82.23
2785;BME280;57944;48.722;9.316;2022-10-16T11:37:37;98225.97;;;24.12;79.94
2785;BME280;57944;48.722;9.316;2022-10-16T11:40:22;98223.63;;;23.76;81.36
2785;BME280;57944;48.722;9.316;2022-10-16T11:43:02;98226.75;;;23.34;85.50
2785;BME280;57944;48.722;9.316;2022-10-16T11:46:02;98227.16;;;23.07;86.68
2785;BME280;57944;48.722;9.316;2022-10-16T11:48:46;98223.97;;;23.15;87.06
2785;BME280;57944;48.722;9.316;2022-10-16T11:51:29;98216.53;;;23.48;85.48
2785;BME280;57944;48.722;9.316;2022-10-16T11:54:12;98225.41;;;23.41;84.07
2785;BME280;57944;48.722;9.316;2022-10-16T11:56:52;98230.63;;;23.41;81.80
2785;BME280;57944;48.722;9.316;2022-10-16T11:59:32;98211.88;;;23.45;80.62
2785;BME280;57944;48.722;9.316;2022-10-16T12:02:30;98211.63;;;23.85;75.29
2785;BME280;57944;48.722;9.316;2022-10-16T12:05:21;98218.19;;;24.07;69.55
2785;BME280;57944;48.722;9.316;2022-10-16T12:08:06;98212.81;;;24.27;65.42
2785;BME280;57944;48.722;9.316;2022-10-16T12:10:42;98217.44;;;24.36;68.64
2785;BME280;57944;48.722;9.316;2022-10-16T12:13:31;98208.19;;;24.48;65.37
2785;BME280;57944;48.722;9.316;2022-10-16T12:16:22;98200.84;;;24.56;62.83
2785;BME280;57944;48.722;9.316;2022-10-16T12:19:12;98196.50;;;24.46;64.18
2785;BME280;57944;48.722;9.316;2022-10-16T12:21:46;98209.31;;;24.66;69.51
2785;BME280;57944;48.722;9.316;2022-10-16T12:24:34;98209.09;;;24.34;65.46
2785;BME280;57944;48.722;9.316;2022-10-16T12:27:24;98206.53;;;24.28;68.35
2785;BME280;57944;48.722;9.316;2022-10-16T12:29:57;98207.59;;;24.57;69.11
2785;BME280;57944;48.722;9.316;2022-10-16T12:32:32;98211.31;;;24.74;70.74
2785;BME280;57944;48.722;9.316;2022-10-16T12:35:22;98208.09;;;24.83;65.28
2785;BME280;57944;48.722;9.316;2022-10-16T12:38:14;98208.50;;;24.90;63.58
2785;BME280;57944;48.722;9.316;2022-10-16T12:40:53;98216.63;;;24.64;67.61
2785;BME280;57944;48.722;9.316;2022-10-16T12:43:35;98222.84;;;24.44;69.90
2785;BME280;57944;48.722;9.316;2022-10-16T12:46:24;98215.75;;;24.50;70.36
2785;BME280;57944;48.722;9.316;2022-10-16T12:49:22;98218.31;;;24.55;68.41
2785;BME280;57944;48.722;9.316;2022-10-16T12:51:58;98219.19;;;24.40;67.74
2785;BME280;57944;48.722;9.316;2022-10-16T12:54:36;98217.19;;;24.61;70.42
2785;BME280;57944;48.722;9.316;2022-10-16T12:57:29;98229.16;;;24.86;66.96
2785;BME280;57944;48.722;9.316;2022-10-16T13:00:18;98215.78;;;25.12;65.54
2785;BME280;57944;48.722;9.316;2022-10-16T13:03:29;98226.63;;;25.43;64.84
2785;BME280;57944;48.722;9.316;2022-10-16T13:06:25;98217.81;;;25.39;63.99
2785;BME280;57944;48.722;9.316;2022-10-16T13:09:46;98230.06;;;25.19;60.91
2785;BME280;57944;48.722;9.316;2022-10-16T13:12:39;98230.91;;;25.15;65.42
2785;BME280;57944;48.722;9.316;2022-10-16T13:15:38;98235.84;;;25.54;60.38
2785;BME280;57944;48.722;9.316;2022-10-16T13:18:18;98230.75;;;25.82;57.43
2785;BME280;57944;48.722;9.316;2022-10-16T13:21:03;98231.34;;;26.12;54.84
2785;BME280;57944;48.722;9.316;2022-10-16T13:23:43;98236.13;;;26.37;53.41
2785;BME280;57944;48.722;9.316;2022-10-16T13:26:30;98240.69;;;26.45;53.43
2785;BME280;57944;48.722;9.316;2022-10-16T13:29:04;98229.59;;;26.21;54.89
2785;BME280;57944;48.722;9.316;2022-10-16T13:31:38;98229.88;;;26.05;55.16
2785;BME280;57944;48.722;9.316;2022-10-16T13:34:15;98233.53;;;25.53;54.70
2785;BME280;57944;48.722;9.316;2022-10-16T13:36:49;98232.28;;;25.50;54.50
2785;BME280;57944;48.722;9.316;2022-10-16T13:39:23;98228.94;;;25.26;55.01
2785;BME280;57944;48.722;9.316;2022-10-16T13:42:12;98227.88;;;25.46;56.94
2785;BME280;57944;48.722;9.316;2022-10-16T13:44:52;98221.03;;;25.69;53.97
2785;BME280;57944;48.722;9.316;2022-10-16T13:47:24;98225.28;;;25.83;53.56
2785;BME280;57944;48.722;9.316;2022-10-16T13:50:01;98231.91;;;26.08;53.17
2785;BME280;57944;48.722;9.316;2022-10-16T13:52:32;98236.69;;;26.20;52.20
2785;BME280;57944;48.722;9.316;2022-10-16T13:55:03;98233.28;;;26.06;52.91